createdAt,value
2022-10-31T00:00:44.255Z,101396.03
2022-10-31T00:01:46.711Z,101392.09
2022-10-31T00:02:50.315Z,101390.91
2022-10-31T00:03:52.519Z,101399.38
2022-10-31T00:04:55.789Z,101399.16
2022-10-31T00:05:57.895Z,101395.88
2022-10-31T00:07:00.972Z,101401.88
2022-10-31T00:08:03.166Z,101401.47
2022-10-31T00:09:07.201Z,101395.69
2022-10-31T00:10:10.336Z,101402.34
2022-10-31T00:11:14.858Z,101409.97
2022-10-31T00:12:16.946Z,101404.00
2022-10-31T00:13:19.996Z,101401.94
2022-10-31T00:14:23.492Z,101403.41
2022-10-31T00:15:25.742Z,101406.09
2022-10-31T00:16:30.192Z,101405.91
2022-10-31T00:17:32.417Z,101406.53
2022-10-31T00:18:35.811Z,101406.13
2022-10-31T00:19:38.323Z,101407.38
2022-10-31T00:20:41.563Z,101394.16
2022-10-31T00:21:43.701Z,101409.25
2022-10-31T00:22:46.782Z,101406.16
2022-10-31T00:23:49.324Z,101403.28
2022-10-31T00:24:52.472Z,101409.47
2022-10-31T00:25:54.616Z,101407.44
2022-10-31T00:26:59.137Z,101409.69
2022-10-31T00:28:01.510Z,101407.84
2022-10-31T00:29:05.856Z,101410.31
2022-10-31T00:30:09.000Z,101405.56
2022-10-31T00:31:13.976Z,101408.44
2022-10-31T00:32:16.047Z,101411.34
2022-10-31T00:33:19.211Z,101414.69
2022-10-31T00:34:21.335Z,101409.13
2022-10-31T00:35:24.486Z,101413.28
2022-10-31T00:36:26.642Z,101408.91
2022-10-31T00:37:29.761Z,101414.72
2022-10-31T00:38:31.890Z,101409.13
2022-10-31T00:39:34.991Z,101409.13
2022-10-31T00:40:37.092Z,101404.38
2022-10-31T00:41:40.312Z,101403.38
2022-10-31T00:42:49.282Z,101398.81
2022-10-31T00:43:52.379Z,101394.28
2022-10-31T00:44:54.756Z,101399.84
2022-10-31T00:45:57.885Z,101400.88
2022-10-31T00:47:00.468Z,101403.53
2022-10-31T00:48:03.705Z,101400.06
2022-10-31T00:49:06.333Z,101407.47
2022-10-31T00:50:10.863Z,101403.53
2022-10-31T00:51:14.021Z,101412.22
2022-10-31T00:52:18.240Z,101405.22
2022-10-31T00:53:20.335Z,101407.06
2022-10-31T00:54:23.656Z,101412.63
2022-10-31T00:55:25.877Z,101413.47
2022-10-31T00:56:30.014Z,101410.78
2022-10-31T00:57:33.493Z,101411.81
2022-10-31T00:58:38.015Z,101408.31
2022-10-31T00:59:40.112Z,101412.84
2022-10-31T01:00:46.696Z,101408.31
2022-10-31T01:01:51.747Z,101408.50
2022-10-31T01:02:55.063Z,101410.34
2022-10-31T01:03:57.195Z,101420.91
2022-10-31T01:05:00.386Z,101416.53
2022-10-31T01:06:04.612Z,101417.38
2022-10-31T01:07:09.343Z,101412.00
2022-10-31T01:08:11.491Z,101416.53
2022-10-31T01:09:14.709Z,101423.75
2022-10-31T01:10:18.951Z,101422.94
2022-10-31T01:11:24.106Z,101434.72
2022-10-31T01:12:26.227Z,101420.03
2022-10-31T01:13:29.359Z,101433.88
2022-10-31T01:14:32.964Z,101439.25
2022-10-31T01:15:36.065Z,101442.13
2022-10-31T01:16:38.182Z,101436.75
2022-10-31T01:17:41.736Z,101438.63
2022-10-31T01:18:48.133Z,101441.06
2022-10-31T01:19:50.247Z,101446.66
2022-10-31T01:21:03.616Z,101445.81
2022-10-31T01:22:05.864Z,101445.03
2022-10-31T01:23:08.936Z,101448.34
2022-10-31T01:24:11.170Z,101442.13
2022-10-31T01:25:15.320Z,101444.63
2022-10-31T01:26:19.707Z,101448.13
2022-10-31T01:27:22.798Z,101441.72
2022-10-31T01:29:28.876Z,101450.63
2022-10-31T01:30:33.121Z,101447.94
2022-10-31T01:31:38.714Z,101450.44
2022-10-31T01:32:40.767Z,101456.81
2022-10-31T01:33:44.105Z,101448.75
2022-10-31T01:34:46.201Z,101448.75
2022-10-31T01:35:49.334Z,101453.28
2022-10-31T01:36:53.076Z,101441.72
2022-10-31T01:37:55.460Z,101450.63
2022-10-31T01:39:00.771Z,101447.94
2022-10-31T01:40:03.084Z,101449.78
2022-10-31T01:41:06.980Z,101444.63
2022-10-31T01:42:19.977Z,101450.81
2022-10-31T01:44:54.845Z,101458.25
2022-10-31T01:45:58.392Z,101452.03
2022-10-31T01:47:06.333Z,101453.88
2022-10-31T01:48:14.830Z,101453.88
2022-10-31T01:49:24.067Z,101455.75
2022-10-31T01:50:32.569Z,101454.09
2022-10-31T01:51:38.736Z,101454.28
2022-10-31T01:52:44.054Z,101464.03
2022-10-31T01:53:48.277Z,101456.97
2022-10-31T01:54:55.315Z,101460.72
2022-10-31T01:55:59.322Z,101466.06
2022-10-31T01:57:03.810Z,101471.44
2022-10-31T01:58:11.714Z,101466.06
2022-10-31T01:59:20.669Z,101473.28
2022-10-31T02:00:24.658Z,101465.44
2022-10-31T02:01:30.609Z,101467.50
2022-10-31T02:02:33.400Z,101465.25
2022-10-31T02:03:37.037Z,101466.06
2022-10-31T02:04:40.341Z,101471.44
2022-10-31T02:05:45.708Z,101460.72
2022-10-31T02:06:52.274Z,101460.72
2022-10-31T02:07:59.313Z,101471.44
2022-10-31T02:09:07.299Z,101467.72
2022-10-31T02:10:10.649Z,101473.28
2022-10-31T02:11:15.248Z,101471.44
2022-10-31T02:12:18.824Z,101470.59
2022-10-31T02:14:28.996Z,101469.97
2022-10-31T02:15:33.487Z,101473.50
2022-10-31T02:16:36.967Z,101479.91
2022-10-31T02:17:40.235Z,101480.72
2022-10-31T02:18:43.392Z,101479.91
2022-10-31T02:19:54.002Z,101477.22
2022-10-31T02:21:05.063Z,101479.91
2022-10-31T02:22:14.489Z,101476.38
2022-10-31T02:23:52.039Z,101477.22
2022-10-31T02:25:15.121Z,101479.06
2022-10-31T02:26:36.229Z,101480.13
2022-10-31T02:27:54.347Z,101483.59
2022-10-31T02:29:32.532Z,101486.28
2022-10-31T02:30:42.478Z,101483.81
2022-10-31T02:31:57.732Z,101493.72
2022-10-31T02:33:13.348Z,101489.59
2022-10-31T02:34:22.872Z,101493.91
2022-10-31T02:35:42.751Z,101498.47
2022-10-31T02:36:55.160Z,101500.31
2022-10-31T02:38:05.473Z,101497.63
2022-10-31T02:39:14.736Z,101494.53
2022-10-31T02:40:23.482Z,101495.16
2022-10-31T02:41:50.294Z,101491.63
2022-10-31T02:43:03.038Z,101492.69
2022-10-31T02:44:13.762Z,101493.47
2022-10-31T02:45:23.768Z,101497.22
2022-10-31T02:46:31.372Z,101493.69
2022-10-31T02:47:40.008Z,101496.56
2022-10-31T02:48:45.658Z,101484.19
2022-10-31T02:49:56.671Z,101495.75
2022-10-31T02:51:01.980Z,101492.25
2022-10-31T02:52:16.116Z,101489.75
2022-10-31T02:53:18.256Z,101499.47
2022-10-31T02:54:23.875Z,101514.72
2022-10-31T02:55:49.006Z,101502.16
2022-10-31T02:56:58.543Z,101497.63
2022-10-31T02:58:06.145Z,101499.47
2022-10-31T02:59:09.316Z,101499.47
2022-10-31T03:00:12.292Z,101506.47
2022-10-31T03:01:52.581Z,101467.34
2022-10-31T03:03:05.020Z,101506.69
2022-10-31T03:04:31.160Z,101509.56
2022-10-31T03:05:49.390Z,101508.13
2022-10-31T03:07:00.369Z,101515.97
2022-10-31T03:08:10.644Z,101508.13
2022-10-31T03:09:20.842Z,101516.97
2022-10-31T03:10:32.227Z,101515.53
2022-10-31T03:11:46.924Z,101515.53
2022-10-31T03:13:01.929Z,101511.22
2022-10-31T03:14:11.679Z,101515.94
2022-10-31T03:15:21.639Z,101515.94
2022-10-31T03:16:30.429Z,101511.59
2022-10-31T03:17:39.220Z,101514.28
2022-10-31T03:18:49.343Z,101517.16
2022-10-31T03:19:57.915Z,101518.81
2022-10-31T03:21:07.448Z,101517.16
2022-10-31T03:22:18.465Z,101523.34
2022-10-31T03:23:23.095Z,101524.19
2022-10-31T03:24:32.819Z,101522.53
2022-10-31T03:25:38.115Z,101524.41
2022-10-31T03:26:46.228Z,101531.41
2022-10-31T03:27:50.967Z,101527.09
2022-10-31T03:28:59.431Z,101527.09
2022-10-31T03:30:04.703Z,101524.78
2022-10-31T03:31:17.925Z,101528.94
2022-10-31T03:32:25.620Z,101529.13
2022-10-31T03:33:33.272Z,101530.13
2022-10-31T03:34:39.294Z,101529.13
2022-10-31T03:35:47.010Z,101527.47
2022-10-31T03:36:52.475Z,101532.81
2022-10-31T03:37:57.483Z,101540.88
2022-10-31T03:39:03.302Z,101537.59
2022-10-31T03:40:10.167Z,101538.59
2022-10-31T03:41:17.428Z,101542.09
2022-10-31T03:42:26.639Z,101535.91
2022-10-31T03:43:33.405Z,101543.97
2022-10-31T03:44:37.693Z,101536.94
2022-10-31T03:45:44.266Z,101548.69
2022-10-31T03:46:48.870Z,101539.63
2022-10-31T03:47:52.149Z,101543.31
2022-10-31T03:48:55.487Z,101545.00
2022-10-31T03:49:59.121Z,101542.50
2022-10-31T03:51:08.561Z,101540.84
2022-10-31T03:52:19.349Z,101546.00
2022-10-31T03:53:25.807Z,101554.25
2022-10-31T03:54:33.983Z,101557.78
2022-10-31T03:55:43.385Z,101558.81
2022-10-31T03:56:51.499Z,101553.44
2022-10-31T03:58:01.958Z,101559.81
2022-10-31T03:59:10.045Z,101560.66
2022-10-31T04:00:15.685Z,101556.94
2022-10-31T04:01:23.059Z,101554.84
2022-10-31T04:02:30.716Z,101560.84
2022-10-31T04:03:36.496Z,101566.22
2022-10-31T04:04:40.695Z,101558.38
2022-10-31T04:05:47.051Z,101514.47
2022-10-31T04:06:53.040Z,101560.22
2022-10-31T04:07:58.388Z,101559.38
2022-10-31T04:09:05.560Z,101561.25
2022-10-31T04:10:11.069Z,101553.78
2022-10-31T04:11:18.051Z,101572.78
2022-10-31T04:12:26.520Z,101571.16
2022-10-31T04:13:40.732Z,101570.31
2022-10-31T04:14:51.613Z,101567.19
2022-10-31T04:15:57.337Z,101574.03
2022-10-31T04:17:04.271Z,101574.84
2022-10-31T04:18:12.596Z,101571.34
2022-10-31T04:19:15.889Z,101567.00
2022-10-31T04:20:20.049Z,101564.94
2022-10-31T04:21:30.087Z,101565.97
2022-10-31T04:22:34.210Z,101567.63
2022-10-31T04:23:37.433Z,101564.31
2022-10-31T04:24:54.323Z,101569.31
2022-10-31T04:25:56.460Z,101572.00
2022-10-31T04:26:59.536Z,101563.75
2022-10-31T04:28:02.737Z,101570.75
2022-10-31T04:29:06.164Z,101565.19
2022-10-31T04:30:09.295Z,101565.38
2022-10-31T04:31:16.417Z,101576.56
2022-10-31T04:32:20.371Z,101573.69
2022-10-31T04:33:23.461Z,101578.84
2022-10-31T04:34:26.310Z,101573.47
2022-10-31T04:35:29.419Z,101573.28
2022-10-31T04:36:33.945Z,101573.06
2022-10-31T04:37:36.105Z,101574.75
2022-10-31T04:38:40.076Z,101576.41
2022-10-31T04:39:50.924Z,101577.44
2022-10-31T04:41:12.669Z,101579.72
2022-10-31T04:42:30.436Z,101579.72
2022-10-31T04:43:35.834Z,101582.41
2022-10-31T04:44:37.972Z,101585.72
2022-10-31T04:45:41.077Z,101594.41
2022-10-31T04:46:44.273Z,101590.88
2022-10-31T04:47:47.614Z,101588.19
2022-10-31T04:48:50.026Z,101590.06
2022-10-31T04:49:53.976Z,101581.34
2022-10-31T04:51:00.566Z,101586.72
2022-10-31T04:52:05.956Z,101588.41
2022-10-31T04:53:08.530Z,101591.09
2022-10-31T04:54:20.417Z,101583.84
2022-10-31T04:55:40.914Z,101584.25
2022-10-31T04:56:54.795Z,101585.72
2022-10-31T04:57:59.262Z,101584.03
2022-10-31T04:59:03.636Z,101594.56
2022-10-31T05:00:19.713Z,101587.56
2022-10-31T05:01:25.030Z,101594.78
2022-10-31T05:02:28.314Z,101592.94
2022-10-31T05:03:32.877Z,101585.09
2022-10-31T05:04:36.027Z,101596.47
2022-10-31T05:05:38.961Z,101592.94
2022-10-31T05:06:42.155Z,101590.25
2022-10-31T05:07:47.485Z,101586.72
2022-10-31T05:08:50.566Z,101588.59
2022-10-31T05:09:52.683Z,101589.41
2022-10-31T05:11:00.340Z,101587.56
2022-10-31T05:12:06.287Z,101588.59
2022-10-31T05:13:32.610Z,101588.59
2022-10-31T05:14:49.718Z,101591.50
2022-10-31T05:16:11.381Z,101587.56
2022-10-31T05:17:25.187Z,101595.63
2022-10-31T05:19:03.730Z,101585.72
2022-10-31T05:20:28.342Z,101591.72
2022-10-31T05:21:46.181Z,101600.59
2022-10-31T05:22:51.455Z,101591.53
2022-10-31T05:23:54.636Z,101588.84
2022-10-31T05:24:59.113Z,101600.19
2022-10-31T05:26:02.229Z,101594.81
2022-10-31T05:27:04.382Z,101595.66
2022-10-31T05:28:07.581Z,101584.91
2022-10-31T05:29:09.806Z,101596.50
2022-10-31T05:30:16.009Z,101598.97
2022-10-31T05:31:18.314Z,101596.28
2022-10-31T05:32:21.528Z,101589.88
2022-10-31T05:33:53.547Z,101596.09
2022-10-31T05:35:15.414Z,101589.06
2022-10-31T05:36:41.576Z,101590.72
2022-10-31T05:38:04.061Z,101593.22
2022-10-31T05:39:06.853Z,101595.06
2022-10-31T05:40:19.537Z,101600.25
2022-10-31T05:41:21.691Z,101590.53
2022-10-31T05:42:25.100Z,101598.78
2022-10-31T05:43:27.815Z,101594.03
2022-10-31T05:44:31.191Z,101595.69
2022-10-31T05:45:44.222Z,101587.63
2022-10-31T05:47:04.247Z,101581.47
2022-10-31T05:48:32.978Z,101583.09
2022-10-31T05:50:05.297Z,101586.00
2022-10-31T05:51:17.706Z,101597.38
2022-10-31T05:52:20.884Z,101596.53
2022-10-31T05:53:32.771Z,101592.00
2022-10-31T05:54:34.814Z,101591.78
2022-10-31T05:55:37.846Z,101589.13
2022-10-31T05:56:52.672Z,101599.84
2022-10-31T05:57:56.739Z,101593.66
2022-10-31T05:58:58.924Z,101599.84
2022-10-31T06:00:03.490Z,101602.53
2022-10-31T06:01:09.448Z,101596.13
2022-10-31T06:02:12.898Z,101599.84
2022-10-31T06:03:48.012Z,101605.84
2022-10-31T06:04:52.218Z,101603.16
2022-10-31T06:05:55.663Z,101605.84
2022-10-31T06:07:00.905Z,101610.19
2022-10-31T06:08:04.442Z,101612.88
2022-10-31T06:09:09.163Z,101615.34
2022-10-31T06:10:12.286Z,101613.50
2022-10-31T06:11:15.482Z,101614.50
2022-10-31T06:12:38.669Z,101617.03
2022-10-31T06:13:55.910Z,101617.84
2022-10-31T06:15:01.577Z,101617.03
2022-10-31T06:16:06.897Z,101614.34
2022-10-31T06:17:12.377Z,101618.69
2022-10-31T06:18:24.399Z,101616.84
2022-10-31T06:19:29.476Z,101627.56
2022-10-31T06:20:32.707Z,101616.00
2022-10-31T06:21:38.555Z,101616.00
2022-10-31T06:22:42.254Z,101624.03
2022-10-31T06:23:44.293Z,101617.84
2022-10-31T06:25:20.582Z,101614.34
2022-10-31T06:26:25.058Z,101611.84
2022-10-31T06:27:29.642Z,101611.84
2022-10-31T06:28:34.442Z,101610.81
2022-10-31T06:29:48.208Z,101613.50
2022-10-31T06:30:59.151Z,101609.16
2022-10-31T06:32:01.825Z,101611.84
2022-10-31T06:33:07.254Z,101603.16
2022-10-31T06:34:13.607Z,101612.47
2022-10-31T06:35:18.316Z,101616.19
2022-10-31T06:36:20.508Z,101614.16
2022-10-31T06:37:23.882Z,101614.34
2022-10-31T06:38:27.330Z,101616.84
2022-10-31T06:39:30.689Z,101615.16
2022-10-31T06:40:34.867Z,101621.38
2022-10-31T06:41:52.073Z,101627.56
2022-10-31T06:43:00.348Z,101634.78
2022-10-31T06:44:06.407Z,101632.94
2022-10-31T06:45:30.315Z,101635.63
2022-10-31T06:47:02.478Z,101630.25
2022-10-31T06:48:18.413Z,101637.28
2022-10-31T06:49:40.582Z,101636.22
2022-10-31T06:50:49.391Z,101631.06
2022-10-31T06:51:53.037Z,101636.22
2022-10-31T06:52:57.208Z,101630.84
2022-10-31T06:54:00.264Z,101645.13
2022-10-31T06:55:02.376Z,101642.44
2022-10-31T06:56:07.462Z,101646.16
2022-10-31T06:57:15.858Z,101655.03
2022-10-31T06:58:18.010Z,101656.06
2022-10-31T06:59:22.567Z,101659.78
2022-10-31T07:00:47.086Z,101659.78
2022-10-31T07:01:50.261Z,101662.47
2022-10-31T07:02:56.996Z,101663.47
2022-10-31T07:04:00.278Z,101658.09
2022-10-31T07:05:02.504Z,101661.00
2022-10-31T07:06:06.074Z,101661.84
2022-10-31T07:07:08.865Z,101659.16
2022-10-31T07:08:15.676Z,101675.47
2022-10-31T07:09:19.386Z,101665.53
2022-10-31T07:10:22.380Z,101663.88
2022-10-31T07:11:35.259Z,101669.25
2022-10-31T07:12:37.416Z,101672.97
2022-10-31T07:13:40.562Z,101673.78
2022-10-31T07:14:43.447Z,101669.25
2022-10-31T07:15:47.291Z,101675.47
2022-10-31T07:16:52.045Z,101686.41
2022-10-31T07:18:01.464Z,101682.03
2022-10-31T07:19:04.539Z,101687.00
2022-10-31T07:20:07.827Z,101681.63
2022-10-31T07:21:10.920Z,101686.84
2022-10-31T07:22:12.956Z,101686.00
2022-10-31T07:23:18.550Z,101682.28
2022-10-31T07:24:26.864Z,101684.97
2022-10-31T07:25:48.605Z,101683.94
2022-10-31T07:26:57.385Z,101686.63
2022-10-31T07:28:00.532Z,101682.91
2022-10-31T07:29:03.955Z,101689.31
2022-10-31T07:30:08.778Z,101685.59
2022-10-31T07:31:11.922Z,101686.44
2022-10-31T07:32:16.469Z,101694.28
2022-10-31T07:33:27.021Z,101692.63
2022-10-31T07:34:50.277Z,101688.91
2022-10-31T07:35:57.829Z,101684.38
2022-10-31T07:37:05.904Z,101689.94
2022-10-31T07:38:09.303Z,101695.28
2022-10-31T07:39:12.325Z,101692.00
2022-10-31T07:40:14.729Z,101686.63
2022-10-31T07:41:17.748Z,101692.81
2022-10-31T07:42:22.230Z,101687.44
2022-10-31T07:43:26.964Z,101694.50
2022-10-31T07:45:02.415Z,101698.19
2022-10-31T07:46:24.504Z,101700.25
2022-10-31T07:47:47.039Z,101698.59
2022-10-31T07:49:10.404Z,101694.25
2022-10-31T07:50:35.297Z,101702.50
2022-10-31T07:51:57.370Z,101699.81
2022-10-31T07:53:17.903Z,101698.13
2022-10-31T07:54:26.319Z,101706.38
2022-10-31T07:55:30.110Z,101712.59
2022-10-31T07:56:34.768Z,101710.72
2022-10-31T07:57:38.363Z,101710.91
2022-10-31T07:58:41.748Z,101707.22
2022-10-31T07:59:43.785Z,101705.56
2022-10-31T08:00:49.629Z,101705.56
2022-10-31T08:02:02.681Z,101703.91
2022-10-31T08:03:10.360Z,101705.94
2022-10-31T08:04:42.089Z,101707.19
2022-10-31T08:05:57.627Z,101700.97
2022-10-31T08:07:19.027Z,101702.19
2022-10-31T08:08:32.315Z,101702.19
2022-10-31T08:09:37.379Z,101701.38
2022-10-31T08:10:50.289Z,101699.69
2022-10-31T08:11:53.568Z,101695.38
2022-10-31T08:13:02.126Z,101702.38
2022-10-31T08:14:06.124Z,101696.19
2022-10-31T08:15:10.273Z,101703.41
2022-10-31T08:16:13.573Z,101699.09
2022-10-31T08:17:25.392Z,101702.56
2022-10-31T08:18:32.933Z,101704.25
2022-10-31T08:19:36.372Z,101703.22
2022-10-31T08:20:40.076Z,101698.50
2022-10-31T08:21:43.847Z,101700.97
2022-10-31T08:22:54.508Z,101704.50
2022-10-31T08:23:58.417Z,101704.69
2022-10-31T08:25:01.280Z,101704.50
2022-10-31T08:26:07.208Z,101695.59
2022-10-31T08:27:09.411Z,101686.53
2022-10-31T08:28:16.674Z,101694.38
2022-10-31T08:29:21.331Z,101692.94
2022-10-31T08:30:25.929Z,101700.19
2022-10-31T08:31:48.996Z,101694.81
2022-10-31T08:33:13.281Z,101688.63
2022-10-31T08:34:39.211Z,101696.50
2022-10-31T08:36:01.183Z,101701.03
2022-10-31T08:37:22.062Z,101702.25
2022-10-31T08:38:29.799Z,101716.03
2022-10-31T08:39:31.833Z,101702.00
2022-10-31T08:40:37.855Z,101712.91
2022-10-31T08:41:40.007Z,101705.06
2022-10-31T08:42:47.533Z,101705.06
2022-10-31T08:43:52.005Z,101708.78
2022-10-31T08:44:54.041Z,101703.41
2022-10-31T08:45:58.792Z,101704.06
2022-10-31T08:47:04.117Z,101701.16
2022-10-31T08:48:13.019Z,101711.72
2022-10-31T08:49:16.232Z,101703.06
2022-10-31T08:50:19.580Z,101712.59
2022-10-31T08:51:23.764Z,101705.78
2022-10-31T08:52:51.238Z,101714.28
2022-10-31T08:53:52.138Z,101711.66
2022-10-31T08:55:10.389Z,101706.19
2022-10-31T08:56:31.991Z,101717.78
2022-10-31T08:57:35.074Z,101707.47
2022-10-31T08:58:40.392Z,101715.97
2022-10-31T08:59:45.873Z,101717.44
2022-10-31T09:01:01.968Z,101714.16
2022-10-31T09:02:05.116Z,101709.22
2022-10-31T09:03:12.619Z,101709.84
2022-10-31T09:04:14.902Z,101715.03
2022-10-31T09:05:18.031Z,101708.19
2022-10-31T09:06:20.231Z,101712.09
2022-10-31T09:07:24.982Z,101704.69
2022-10-31T09:08:32.003Z,101708.19
2022-10-31T09:09:35.056Z,101706.31
2022-10-31T09:10:39.540Z,101708.59
2022-10-31T09:11:41.737Z,101704.91
2022-10-31T09:12:47.587Z,101700.16
2022-10-31T09:13:59.556Z,101700.97
2022-10-31T09:15:33.144Z,101706.56
2022-10-31T09:16:57.037Z,101693.97
2022-10-31T09:18:06.786Z,101693.13
2022-10-31T09:19:25.723Z,101697.47
2022-10-31T09:20:28.163Z,101695.81
2022-10-31T09:21:31.613Z,101695.81
2022-10-31T09:22:34.534Z,101692.28
2022-10-31T09:23:37.600Z,101691.47
2022-10-31T09:24:39.847Z,101690.44
2022-10-31T09:25:49.316Z,101696.00
2022-10-31T09:27:12.205Z,101696.66
2022-10-31T09:28:19.177Z,101690.44
2022-10-31T09:29:23.111Z,101695.41
2022-10-31T09:30:34.645Z,101689.84
2022-10-31T09:31:42.311Z,101687.78
2022-10-31T09:33:03.600Z,101694.84
2022-10-31T09:34:05.749Z,101692.13
2022-10-31T09:35:14.793Z,101694.84
2022-10-31T09:36:19.310Z,101692.31
2022-10-31T09:37:22.468Z,101693.16
2022-10-31T09:38:25.330Z,101695.00
2022-10-31T09:39:28.519Z,101695.00
2022-10-31T09:40:38.786Z,101698.31
2022-10-31T09:42:01.110Z,101695.22
2022-10-31T09:43:14.505Z,101696.50
2022-10-31T09:44:28.821Z,101696.72
2022-10-31T09:45:40.162Z,101702.34
2022-10-31T09:47:04.444Z,101699.03
2022-10-31T09:48:33.104Z,101707.13
2022-10-31T09:50:04.829Z,101713.56
2022-10-31T09:51:11.599Z,101719.38
2022-10-31T09:52:35.249Z,101720.63
2022-10-31T09:53:46.704Z,101719.19
2022-10-31T09:54:55.959Z,101720.44
2022-10-31T09:56:00.842Z,101716.72
2022-10-31T09:57:05.770Z,101724.38
2022-10-31T09:58:14.660Z,101721.88
2022-10-31T09:59:26.345Z,101719.84
2022-10-31T10:00:29.018Z,101725.00
2022-10-31T10:01:45.193Z,101727.69
2022-10-31T10:02:51.864Z,101729.97
2022-10-31T10:04:01.288Z,101734.34
2022-10-31T10:05:35.491Z,101725.84
2022-10-31T10:06:45.748Z,101726.50
2022-10-31T10:08:14.048Z,101728.13
2022-10-31T10:09:40.092Z,101727.34
2022-10-31T10:11:14.832Z,101728.56
2022-10-31T10:13:08.093Z,101718.22
2022-10-31T10:14:27.630Z,101728.53
2022-10-31T10:15:50.047Z,101721.09
2022-10-31T10:17:07.250Z,101736.78
2022-10-31T10:18:22.747Z,101725.59
2022-10-31T10:19:43.702Z,101718.97
2022-10-31T10:20:59.733Z,101717.72
2022-10-31T10:22:11.697Z,101720.78
2022-10-31T10:23:33.098Z,101725.56
2022-10-31T10:24:54.223Z,101722.25
2022-10-31T10:26:11.191Z,101720.56
2022-10-31T10:27:23.428Z,101720.56
2022-10-31T10:28:32.616Z,101722.25
2022-10-31T10:29:42.938Z,101722.25
2022-10-31T10:30:51.458Z,101726.56
2022-10-31T10:32:00.228Z,101724.72
2022-10-31T10:33:08.622Z,101725.56
2022-10-31T10:34:20.167Z,101722.88
2022-10-31T10:35:28.252Z,101721.00
2022-10-31T10:36:39.156Z,101727.22
2022-10-31T10:37:45.314Z,101728.06
2022-10-31T10:38:53.437Z,101726.00
2022-10-31T10:39:58.914Z,101716.03
2022-10-31T10:41:04.873Z,101719.56
2022-10-31T10:42:30.869Z,101719.78
2022-10-31T10:43:36.511Z,101715.41
2022-10-31T10:44:59.840Z,101714.81
2022-10-31T10:46:36.126Z,101712.13
2022-10-31T10:47:43.732Z,101714.19
2022-10-31T10:48:51.307Z,101703.41
2022-10-31T10:49:54.838Z,101706.09
2022-10-31T10:50:58.613Z,101704.44
2022-10-31T10:54:03.212Z,101695.16
2022-10-31T10:55:15.603Z,101688.53
2022-10-31T10:56:28.910Z,101687.94
2022-10-31T10:57:57.124Z,101683.00
2022-10-31T10:58:59.451Z,101686.28
2022-10-31T11:00:06.286Z,101685.47
2022-10-31T11:02:20.963Z,101685.28
2022-10-31T11:03:25.393Z,101687.53
2022-10-31T11:04:33.245Z,101686.31
2022-10-31T11:05:39.582Z,101692.09
2022-10-31T11:06:41.935Z,101683.84
2022-10-31T11:07:45.336Z,101684.44
2022-10-31T11:08:47.942Z,101692.13
2022-10-31T11:09:51.581Z,101693.78
2022-10-31T11:11:06.268Z,101695.22
2022-10-31T11:12:11.833Z,101689.66
2022-10-31T11:13:25.750Z,101691.09
2022-10-31T11:14:28.581Z,101688.00
2022-10-31T11:15:34.343Z,101687.59
2022-10-31T11:16:49.052Z,101682.84
2022-10-31T11:17:53.198Z,101691.53
2022-10-31T11:19:09.949Z,101685.13
2022-10-31T11:20:32.780Z,101688.44
2022-10-31T11:21:35.717Z,101682.88
2022-10-31T11:22:38.993Z,101685.56
2022-10-31T11:23:41.402Z,101678.13
2022-10-31T11:24:44.753Z,101687.66
2022-10-31T11:25:55.669Z,101677.50
2022-10-31T11:27:13.982Z,101683.94
2022-10-31T11:28:16.329Z,101684.13
2022-10-31T11:29:23.639Z,101676.69
2022-10-31T11:30:25.916Z,101678.13
2022-10-31T11:31:29.727Z,101672.13
2022-10-31T11:32:32.052Z,101678.16
2022-10-31T11:33:38.131Z,101668.59
2022-10-31T11:34:47.076Z,101674.41
2022-10-31T11:35:53.425Z,101673.78
2022-10-31T11:37:06.787Z,101671.50
2022-10-31T11:38:09.937Z,101671.91
2022-10-31T11:39:19.177Z,101668.19
2022-10-31T11:40:25.018Z,101671.47
2022-10-31T11:41:32.657Z,101675.00
2022-10-31T11:42:39.865Z,101681.44
2022-10-31T11:43:50.536Z,101677.91
2022-10-31T11:44:54.727Z,101674.38
2022-10-31T11:45:58.746Z,101677.72
2022-10-31T11:47:03.725Z,101675.00
2022-10-31T11:48:18.813Z,101684.75
2022-10-31T11:49:26.964Z,101675.63
2022-10-31T11:50:37.819Z,101686.00
2022-10-31T11:51:42.269Z,101683.91
2022-10-31T11:52:45.522Z,101687.25
2022-10-31T11:53:56.933Z,101678.09
2022-10-31T11:55:04.389Z,101680.81
2022-10-31T11:56:14.575Z,101681.44
2022-10-31T11:57:29.029Z,101673.97
2022-10-31T11:58:31.253Z,101671.06
2022-10-31T11:59:35.073Z,101678.94
2022-10-31T12:00:41.872Z,101658.22
2022-10-31T12:01:50.590Z,101662.34
2022-10-31T12:03:11.647Z,101659.44
2022-10-31T12:04:17.038Z,101659.44
2022-10-31T12:05:22.662Z,101649.94
2022-10-31T12:06:33.053Z,101654.47
2022-10-31T12:07:36.665Z,101659.88
2022-10-31T12:08:40.634Z,101650.94
2022-10-31T12:09:44.041Z,101642.88
2022-10-31T12:10:57.062Z,101649.94
2022-10-31T12:12:15.530Z,101656.53
2022-10-31T12:13:34.427Z,101658.63
2022-10-31T12:14:46.913Z,101652.59
2022-10-31T12:15:57.602Z,101661.06
2022-10-31T12:17:03.574Z,101650.69
2022-10-31T12:18:28.521Z,101656.50
2022-10-31T12:19:42.274Z,101656.88
2022-10-31T12:20:53.011Z,101658.13
2022-10-31T12:22:01.897Z,101653.13
2022-10-31T12:23:12.076Z,101648.16
2022-10-31T12:24:24.989Z,101651.47
2022-10-31T12:25:42.538Z,101642.31
2022-10-31T12:26:58.465Z,101639.41
2022-10-31T12:28:13.802Z,101645.63
2022-10-31T12:29:30.520Z,101646.06
2022-10-31T12:30:45.972Z,101646.47
2022-10-31T12:32:04.221Z,101645.19
2022-10-31T12:33:40.246Z,101655.38
2022-10-31T12:35:06.453Z,101645.16
2022-10-31T12:36:22.981Z,101650.56
2022-10-31T12:37:43.226Z,101648.25
2022-10-31T12:39:07.040Z,101649.09
2022-10-31T12:40:31.944Z,101645.56
2022-10-31T12:42:10.899Z,101647.47
2022-10-31T12:43:31.031Z,101650.56
2022-10-31T12:45:14.811Z,101651.84
2022-10-31T12:46:26.583Z,101650.59
2022-10-31T12:47:43.411Z,101645.63
2022-10-31T12:49:12.747Z,101641.91
2022-10-31T12:50:27.388Z,101640.69
2022-10-31T12:51:39.751Z,101641.91
2022-10-31T12:52:55.773Z,101642.56
2022-10-31T12:54:18.454Z,101642.34
2022-10-31T12:55:47.336Z,101639.03
2022-10-31T12:57:05.513Z,101638.63
2022-10-31T12:58:13.742Z,101645.28
2022-10-31T12:59:27.866Z,101635.75
2022-10-31T13:00:33.050Z,101637.81
2022-10-31T13:01:40.139Z,101638.25
2022-10-31T13:02:50.103Z,101633.91
2022-10-31T13:04:00.103Z,101637.03
2022-10-31T13:05:06.941Z,101637.03
2022-10-31T13:06:14.973Z,101636.41
2022-10-31T13:07:22.617Z,101635.56
2022-10-31T13:08:35.548Z,101633.09
2022-10-31T13:09:43.305Z,101632.47
2022-10-31T13:10:50.414Z,101625.66
2022-10-31T13:11:59.113Z,101639.94
2022-10-31T13:13:09.215Z,101628.56
2022-10-31T13:14:18.787Z,101626.28